sensor_id;sensor_type;location;lat;lon;timestamp;P1;durP1;ratioP1;P2;durP2;ratioP2
9186;SDS011;7273;48.902;9.410;2024-01-30T00:02:21;0.68;;;0.68;;
9186;SDS011;7273;48.902;9.410;2024-01-30T00:04:46;1.25;;;1.15;;
9186;SDS011;7273;48.902;9.410;2024-01-30T00:07:12;7.28;;;1.42;;
9186;SDS011;7273;48.902;9.410;2024-01-30T00:09:38;0.82;;;0.82;;
9186;SDS011;7273;48.902;9.410;2024-01-30T00:12:05;1.60;;;1.08;;
9186;SDS011;7273;48.902;9.410;2024-01-30T00:14:31;0.52;;;0.52;;
9186;SDS011;7273;48.902;9.410;2024-01-30T00:16:57;0.98;;;0.75;;
9186;SDS011;7273;48.902;9.410;2024-01-30T00:19:22;2.50;;;1.67;;
9186;SDS011;7273;48.902;9.410;2024-01-30T00:21:48;0.95;;;0.80;;
9186;SDS011;7273;48.902;9.410;2024-01-30T00:24:14;0.65;;;0.63;;
9186;SDS011;7273;48.902;9.410;2024-01-30T00:26:39;1.88;;;0.82;;
9186;SDS011;7273;48.902;9.410;2024-01-30T00:29:05;2.67;;;1.30;;
9186;SDS011;7273;48.902;9.410;2024-01-30T00:31:31;1.55;;;0.70;;
9186;SDS011;7273;48.902;9.410;2024-01-30T00:33:56;1.80;;;1.27;;
9186;SDS011;7273;48.902;9.410;2024-01-30T00:36:22;0.90;;;0.90;;
9186;SDS011;7273;48.902;9.410;2024-01-30T00:38:48;0.63;;;0.43;;
9186;SDS011;7273;48.902;9.410;2024-01-30T00:41:13;3.87;;;1.33;;
9186;SDS011;7273;48.902;9.410;2024-01-30T00:43:39;1.65;;;0.90;;
9186;SDS011;7273;48.902;9.410;2024-01-30T00:46:05;1.40;;;0.82;;
9186;SDS011;7273;48.902;9.410;2024-01-30T00:48:31;0.98;;;0.68;;
9186;SDS011;7273;48.902;9.410;2024-01-30T00:50:56;1.88;;;1.33;;
9186;SDS011;7273;48.902;9.410;2024-01-30T00:53:22;1.33;;;0.82;;
9186;SDS011;7273;48.902;9.410;2024-01-30T00:55:47;2.97;;;0.70;;
9186;SDS011;7273;48.902;9.410;2024-01-30T00:58:13;0.77;;;0.75;;
9186;SDS011;7273;48.902;9.410;2024-01-30T01:00:39;2.83;;;1.58;;
9186;SDS011;7273;48.902;9.410;2024-01-30T01:03:05;1.27;;;0.50;;
9186;SDS011;7273;48.902;9.410;2024-01-30T01:05:31;3.05;;;1.88;;
9186;SDS011;7273;48.902;9.410;2024-01-30T01:07:56;1.17;;;0.57;;
9186;SDS011;7273;48.902;9.410;2024-01-30T01:10:22;0.40;;;0.35;;
9186;SDS011;7273;48.902;9.410;2024-01-30T01:12:48;0.63;;;0.50;;
9186;SDS011;7273;48.902;9.410;2024-01-30T01:15:14;2.60;;;1.70;;
9186;SDS011;7273;48.902;9.410;2024-01-30T01:17:40;2.63;;;1.95;;
9186;SDS011;7273;48.902;9.410;2024-01-30T01:20:06;0.52;;;0.52;;
9186;SDS011;7273;48.902;9.410;2024-01-30T01:22:33;1.50;;;1.05;;
9186;SDS011;7273;48.902;9.410;2024-01-30T01:24:59;6.10;;;0.88;;
9186;SDS011;7273;48.902;9.410;2024-01-30T01:27:25;1.08;;;0.85;;
9186;SDS011;7273;48.902;9.410;2024-01-30T01:29:50;6.82;;;2.95;;
9186;SDS011;7273;48.902;9.410;2024-01-30T01:32:16;1.27;;;1.05;;
9186;SDS011;7273;48.902;9.410;2024-01-30T01:34:42;4.28;;;0.95;;
9186;SDS011;7273;48.902;9.410;2024-01-30T01:37:09;3.35;;;1.67;;
9186;SDS011;7273;48.902;9.410;2024-01-30T01:39:35;2.53;;;1.67;;
9186;SDS011;7273;48.902;9.410;2024-01-30T01:42:01;4.40;;;2.72;;
9186;SDS011;7273;48.902;9.410;2024-01-30T01:44:28;0.63;;;0.63;;
9186;SDS011;7273;48.902;9.410;2024-01-30T01:46:55;2.08;;;0.75;;
9186;SDS011;7273;48.902;9.410;2024-01-30T01:49:22;1.42;;;1.25;;
9186;SDS011;7273;48.902;9.410;2024-01-30T01:51:50;0.85;;;0.70;;
9186;SDS011;7273;48.902;9.410;2024-01-30T01:54:19;6.38;;;1.90;;
9186;SDS011;7273;48.902;9.410;2024-01-30T01:56:45;5.22;;;0.80;;
9186;SDS011;7273;48.902;9.410;2024-01-30T01:59:11;1.95;;;1.33;;
9186;SDS011;7273;48.902;9.410;2024-01-30T02:01:37;0.75;;;0.57;;
9186;SDS011;7273;48.902;9.410;2024-01-30T02:04:03;2.90;;;1.67;;
9186;SDS011;7273;48.902;9.410;2024-01-30T02:06:29;2.30;;;0.45;;
9186;SDS011;7273;48.902;9.410;2024-01-30T02:08:56;0.80;;;0.55;;
9186;SDS011;7273;48.902;9.410;2024-01-30T02:11:22;8.10;;;1.90;;
9186;SDS011;7273;48.902;9.410;2024-01-30T02:13:48;2.80;;;1.33;;
9186;SDS011;7273;48.902;9.410;2024-01-30T02:16:15;1.40;;;0.93;;
9186;SDS011;7273;48.902;9.410;2024-01-30T02:18:42;3.13;;;2.10;;
9186;SDS011;7273;48.902;9.410;2024-01-30T02:21:10;1.42;;;0.95;;
9186;SDS011;7273;48.902;9.410;2024-01-30T02:23:36;3.92;;;2.20;;
9186;SDS011;7273;48.902;9.410;2024-01-30T02:26:03;0.80;;;0.60;;
9186;SDS011;7273;48.902;9.410;2024-01-30T02:28:28;0.45;;;0.45;;
9186;SDS011;7273;48.902;9.410;2024-01-30T02:30:54;1.73;;;0.93;;
9186;SDS011;7273;48.902;9.410;2024-01-30T02:33:19;1.17;;;1.08;;
9186;SDS011;7273;48.902;9.410;2024-01-30T02:35:47;1.25;;;0.80;;
9186;SDS011;7273;48.902;9.410;2024-01-30T02:38:12;2.15;;;1.50;;
9186;SDS011;7273;48.902;9.410;2024-01-30T02:40:38;1.45;;;1.35;;
9186;SDS011;7273;48.902;9.410;2024-01-30T02:43:04;4.53;;;2.25;;
9186;SDS011;7273;48.902;9.410;2024-01-30T02:45:30;2.00;;;0.35;;
9186;SDS011;7273;48.902;9.410;2024-01-30T02:47:55;0.73;;;0.65;;
9186;SDS011;7273;48.902;9.410;2024-01-30T02:50:21;2.47;;;1.00;;
9186;SDS011;7273;48.902;9.410;2024-01-30T02:52:46;1.42;;;1.33;;
9186;SDS011;7273;48.902;9.410;2024-01-30T02:55:12;1.42;;;0.90;;
9186;SDS011;7273;48.902;9.410;2024-01-30T02:57:38;2.38;;;0.65;;
9186;SDS011;7273;48.902;9.410;2024-01-30T03:00:04;3.20;;;1.73;;
9186;SDS011;7273;48.902;9.410;2024-01-30T03:02:31;1.50;;;0.90;;
9186;SDS011;7273;48.902;9.410;2024-01-30T03:04:57;2.20;;;1.15;;
9186;SDS011;7273;48.902;9.410;2024-01-30T03:07:22;0.80;;;0.60;;
9186;SDS011;7273;48.902;9.410;2024-01-30T03:09:48;2.60;;;1.60;;
9186;SDS011;7273;48.902;9.410;2024-01-30T03:12:13;0.88;;;0.47;;
9186;SDS011;7273;48.902;9.410;2024-01-30T03:14:39;0.68;;;0.38;;
9186;SDS011;7273;48.902;9.410;2024-01-30T03:17:04;1.10;;;1.00;;
9186;SDS011;7273;48.902;9.410;2024-01-30T03:19:29;0.80;;;0.55;;
9186;SDS011;7273;48.902;9.410;2024-01-30T03:21:55;0.40;;;0.40;;
9186;SDS011;7273;48.902;9.410;2024-01-30T03:24:20;4.18;;;1.98;;
9186;SDS011;7273;48.902;9.410;2024-01-30T03:26:46;1.60;;;0.85;;
9186;SDS011;7273;48.902;9.410;2024-01-30T03:29:11;3.40;;;1.88;;
9186;SDS011;7273;48.902;9.410;2024-01-30T03:31:37;1.10;;;0.52;;
9186;SDS011;7273;48.902;9.410;2024-01-30T03:34:02;2.80;;;1.58;;
9186;SDS011;7273;48.902;9.410;2024-01-30T03:36:27;1.27;;;1.03;;
9186;SDS011;7273;48.902;9.410;2024-01-30T03:38:53;0.35;;;0.30;;
9186;SDS011;7273;48.902;9.410;2024-01-30T03:41:19;3.67;;;1.65;;
9186;SDS011;7273;48.902;9.410;2024-01-30T03:43:44;4.28;;;1.33;;
9186;SDS011;7273;48.902;9.410;2024-01-30T03:46:11;0.55;;;0.52;;
9186;SDS011;7273;48.902;9.410;2024-01-30T03:48:36;1.83;;;1.35;;
9186;SDS011;7273;48.902;9.410;2024-01-30T03:51:02;3.60;;;0.88;;
9186;SDS011;7273;48.902;9.410;2024-01-30T03:53:27;1.88;;;1.42;;
9186;SDS011;7273;48.902;9.410;2024-01-30T03:55:53;0.47;;;0.47;;
9186;SDS011;7273;48.902;9.410;2024-01-30T03:58:18;2.77;;;1.90;;
9186;SDS011;7273;48.902;9.410;2024-01-30T04:00:43;5.40;;;2.23;;
9186;SDS011;7273;48.902;9.410;2024-01-30T04:03:09;1.42;;;1.08;;
9186;SDS011;7273;48.902;9.410;2024-01-30T04:05:35;1.17;;;0.60;;
9186;SDS011;7273;48.902;9.410;2024-01-30T04:08:00;2.22;;;1.20;;
9186;SDS011;7273;48.902;9.410;2024-01-30T04:10:25;4.03;;;2.53;;
9186;SDS011;7273;48.902;9.410;2024-01-30T04:12:51;1.55;;;0.80;;
9186;SDS011;7273;48.902;9.410;2024-01-30T04:15:17;1.75;;;0.73;;
9186;SDS011;7273;48.902;9.410;2024-01-30T04:17:42;1.88;;;0.85;;
9186;SDS011;7273;48.902;9.410;2024-01-30T04:20:12;1.38;;;1.27;;
9186;SDS011;7273;48.902;9.410;2024-01-30T04:22:38;1.38;;;1.08;;
9186;SDS011;7273;48.902;9.410;2024-01-30T04:25:04;0.70;;;0.60;;
9186;SDS011;7273;48.902;9.410;2024-01-30T04:27:29;1.42;;;1.33;;
9186;SDS011;7273;48.902;9.410;2024-01-30T04:29:55;4.22;;;1.40;;
9186;SDS011;7273;48.902;9.410;2024-01-30T04:32:20;1.63;;;0.68;;
9186;SDS011;7273;48.902;9.410;2024-01-30T04:34:45;0.90;;;0.63;;
9186;SDS011;7273;48.902;9.410;2024-01-30T04:37:11;0.83;;;0.47;;
9186;SDS011;7273;48.902;9.410;2024-01-30T04:39:36;2.10;;;1.23;;
9186;SDS011;7273;48.902;9.410;2024-01-30T04:42:02;2.38;;;1.27;;
9186;SDS011;7273;48.902;9.410;2024-01-30T04:44:27;3.50;;;1.25;;
9186;SDS011;7273;48.902;9.410;2024-01-30T04:46:53;1.75;;;0.98;;
9186;SDS011;7273;48.902;9.410;2024-01-30T04:49:18;2.97;;;2.25;;
9186;SDS011;7273;48.902;9.410;2024-01-30T04:51:44;1.80;;;0.97;;
9186;SDS011;7273;48.902;9.410;2024-01-30T04:54:09;5.03;;;0.83;;
9186;SDS011;7273;48.902;9.410;2024-01-30T04:56:34;1.63;;;0.53;;
9186;SDS011;7273;48.902;9.410;2024-01-30T04:59:01;1.50;;;0.70;;
9186;SDS011;7273;48.902;9.410;2024-01-30T05:01:27;1.33;;;0.47;;
9186;SDS011;7273;48.902;9.410;2024-01-30T05:03:53;3.13;;;1.08;;
9186;SDS011;7273;48.902;9.410;2024-01-30T05:06:27;2.08;;;1.02;;
9186;SDS011;7273;48.902;9.410;2024-01-30T05:08:53;4.50;;;1.08;;
9186;SDS011;7273;48.902;9.410;2024-01-30T05:11:18;1.90;;;1.00;;
9186;SDS011;7273;48.902;9.410;2024-01-30T05:13:44;1.35;;;0.68;;
9186;SDS011;7273;48.902;9.410;2024-01-30T05:16:09;1.90;;;1.02;;
9186;SDS011;7273;48.902;9.410;2024-01-30T05:18:35;2.58;;;1.00;;
9186;SDS011;7273;48.902;9.410;2024-01-30T05:21:01;1.15;;;0.40;;
9186;SDS011;7273;48.902;9.410;2024-01-30T05:23:27;1.45;;;0.63;;
9186;SDS011;7273;48.902;9.410;2024-01-30T05:25:52;1.87;;;1.10;;
9186;SDS011;7273;48.902;9.410;2024-01-30T05:28:18;1.10;;;0.70;;
9186;SDS011;7273;48.902;9.410;2024-01-30T05:30:43;0.98;;;0.75;;
9186;SDS011;7273;48.902;9.410;2024-01-30T05:33:08;1.65;;;0.70;;
9186;SDS011;7273;48.902;9.410;2024-01-30T05:35:34;1.52;;;1.13;;
9186;SDS011;7273;48.902;9.410;2024-01-30T05:38:00;1.38;;;0.73;;
9186;SDS011;7273;48.902;9.410;2024-01-30T05:40:25;3.63;;;2.03;;
9186;SDS011;7273;48.902;9.410;2024-01-30T05:42:50;1.47;;;0.97;;
9186;SDS011;7273;48.902;9.410;2024-01-30T05:45:16;6.53;;;3.15;;
9186;SDS011;7273;48.902;9.410;2024-01-30T05:47:41;3.65;;;1.65;;
9186;SDS011;7273;48.902;9.410;2024-01-30T05:50:07;2.80;;;1.35;;
9186;SDS011;7273;48.902;9.410;2024-01-30T05:52:32;4.82;;;2.92;;
9186;SDS011;7273;48.902;9.410;2024-01-30T05:54:58;8.43;;;3.63;;
9186;SDS011;7273;48.902;9.410;2024-01-30T05:57:23;2.50;;;1.15;;
9186;SDS011;7273;48.902;9.410;2024-01-30T05:59:48;8.07;;;5.77;;
9186;SDS011;7273;48.902;9.410;2024-01-30T06:02:16;10.20;;;5.00;;
9186;SDS011;7273;48.902;9.410;2024-01-30T06:04:42;80.60;;;43.35;;
9186;SDS011;7273;48.902;9.410;2024-01-30T06:07:07;82.03;;;44.80;;
9186;SDS011;7273;48.902;9.410;2024-01-30T06:09:33;98.63;;;50.60;;
9186;SDS011;7273;48.902;9.410;2024-01-30T06:11:58;62.42;;;33.25;;
9186;SDS011;7273;48.902;9.410;2024-01-30T06:14:23;26.60;;;15.18;;
9186;SDS011;7273;48.902;9.410;2024-01-30T06:16:49;30.27;;;15.38;;
9186;SDS011;7273;48.902;9.410;2024-01-30T06:19:15;161.45;;;68.60;;
9186;SDS011;7273;48.902;9.410;2024-01-30T06:21:40;72.63;;;34.95;;
9186;SDS011;7273;48.902;9.410;2024-01-30T06:24:06;166.37;;;68.20;;
9186;SDS011;7273;48.902;9.410;2024-01-30T06:26:31;246.13;;;95.30;;
9186;SDS011;7273;48.902;9.410;2024-01-30T06:28:56;210.35;;;84.82;;
9186;SDS011;7273;48.902;9.410;2024-01-30T06:31:22;96.97;;;47.88;;
9186;SDS011;7273;48.902;9.410;2024-01-30T06:33:47;63.40;;;33.40;;
9186;SDS011;7273;48.902;9.410;2024-01-30T06:36:14;91.05;;;43.65;;
9186;SDS011;7273;48.902;9.410;2024-01-30T06:38:40;155.90;;;72.07;;
9186;SDS011;7273;48.902;9.410;2024-01-30T06:41:06;160.05;;;72.65;;
9186;SDS011;7273;48.902;9.410;2024-01-30T06:43:31;62.00;;;32.22;;
9186;SDS011;7273;48.902;9.410;2024-01-30T06:45:56;209.03;;;82.67;;
9186;SDS011;7273;48.902;9.410;2024-01-30T06:48:22;307.10;;;112.65;;
9186;SDS011;7273;48.902;9.410;2024-01-30T06:50:47;49.57;;;28.97;;
9186;SDS011;7273;48.902;9.410;2024-01-30T06:53:14;100.40;;;47.72;;
9186;SDS011;7273;48.902;9.410;2024-01-30T06:55:39;120.50;;;52.67;;
9186;SDS011;7273;48.902;9.410;2024-01-30T06:58:05;34.75;;;18.02;;
9186;SDS011;7273;48.902;9.410;2024-01-30T07:00:30;78.15;;;34.30;;
9186;SDS011;7273;48.902;9.410;2024-01-30T07:02:56;131.85;;;57.20;;
9186;SDS011;7273;48.902;9.410;2024-01-30T07:05:21;262.37;;;99.13;;
9186;SDS011;7273;48.902;9.410;2024-01-30T07:07:47;207.15;;;81.93;;
9186;SDS011;7273;48.902;9.410;2024-01-30T07:10:12;8.77;;;2.58;;
9186;SDS011;7273;48.902;9.410;2024-01-30T07:12:38;7.95;;;4.43;;
9186;SDS011;7273;48.902;9.410;2024-01-30T07:15:03;7.40;;;5.50;;
9186;SDS011;7273;48.902;9.410;2024-01-30T07:17:33;6.35;;;2.67;;
9186;SDS011;7273;48.902;9.410;2024-01-30T07:19:58;2.55;;;1.17;;
9186;SDS011;7273;48.902;9.410;2024-01-30T07:22:24;5.03;;;2.70;;
9186;SDS011;7273;48.902;9.410;2024-01-30T07:24:49;3.42;;;1.63;;
9186;SDS011;7273;48.902;9.410;2024-01-30T07:27:16;3.35;;;1.52;;
9186;SDS011;7273;48.902;9.410;2024-01-30T07:29:42;4.78;;;1.27;;
9186;SDS011;7273;48.902;9.410;2024-01-30T07:32:08;4.80;;;2.85;;
9186;SDS011;7273;48.902;9.410;2024-01-30T07:34:33;4.18;;;2.15;;
9186;SDS011;7273;48.902;9.410;2024-01-30T07:36:58;14.82;;;9.27;;
9186;SDS011;7273;48.902;9.410;2024-01-30T07:39:24;12.23;;;8.93;;
9186;SDS011;7273;48.902;9.410;2024-01-30T07:41:49;6.07;;;4.28;;
9186;SDS011;7273;48.902;9.410;2024-01-30T07:44:15;5.97;;;3.83;;
9186;SDS011;7273;48.902;9.410;2024-01-30T07:46:41;9.18;;;4.25;;
9186;SDS011;7273;48.902;9.410;2024-01-30T07:49:06;7.80;;;3.72;;
9186;SDS011;7273;48.902;9.410;2024-01-30T07:51:31;7.85;;;3.90;;
9186;SDS011;7273;48.902;9.410;2024-01-30T07:53:58;3.90;;;1.75;;
9186;SDS011;7273;48.902;9.410;2024-01-30T07:56:23;5.28;;;2.22;;
9186;SDS011;7273;48.902;9.410;2024-01-30T07:58:49;15.55;;;3.80;;
9186;SDS011;7273;48.902;9.410;2024-01-30T08:01:15;10.27;;;5.20;;
9186;SDS011;7273;48.902;9.410;2024-01-30T08:03:40;13.65;;;8.05;;
9186;SDS011;7273;48.902;9.410;2024-01-30T08:06:06;10.95;;;3.25;;
9186;SDS011;7273;48.902;9.410;2024-01-30T08:08:32;9.73;;;5.15;;
9186;SDS011;7273;48.902;9.410;2024-01-30T08:10:57;23.00;;;13.85;;
9186;SDS011;7273;48.902;9.410;2024-01-30T08:13:23;3.45;;;1.13;;
9186;SDS011;7273;48.902;9.410;2024-01-30T08:15:48;5.72;;;2.35;;
9186;SDS011;7273;48.902;9.410;2024-01-30T08:18:14;3.85;;;1.65;;
9186;SDS011;7273;48.902;9.410;2024-01-30T08:20:39;5.50;;;1.83;;
9186;SDS011;7273;48.902;9.410;2024-01-30T08:23:04;1.98;;;0.60;;
9186;SDS011;7273;48.902;9.410;2024-01-30T08:25:30;2.90;;;1.40;;
9186;SDS011;7273;48.902;9.410;2024-01-30T08:27:55;1.95;;;0.60;;
9186;SDS011;7273;48.902;9.410;2024-01-30T08:30:22;2.63;;;0.82;;
9186;SDS011;7273;48.902;9.410;2024-01-30T08:32:47;5.18;;;2.88;;
9186;SDS011;7273;48.902;9.410;2024-01-30T08:35:13;47.33;;;32.25;;
9186;SDS011;7273;48.902;9.410;2024-01-30T08:37:40;87.90;;;45.65;;
9186;SDS011;7273;48.902;9.410;2024-01-30T08:40:06;94.88;;;48.42;;
9186;SDS011;7273;48.902;9.410;2024-01-30T08:42:33;117.65;;;55.70;;
9186;SDS011;7273;48.902;9.410;2024-01-30T08:44:58;115.78;;;54.47;;
9186;SDS011;7273;48.902;9.410;2024-01-30T08:47:24;130.90;;;58.83;;
9186;SDS011;7273;48.902;9.410;2024-01-30T08:49:50;160.60;;;68.85;;
9186;SDS011;7273;48.902;9.410;2024-01-30T08:52:16;178.73;;;75.25;;
9186;SDS011;7273;48.902;9.410;2024-01-30T08:54:42;176.85;;;73.40;;
9186;SDS011;7273;48.902;9.410;2024-01-30T08:57:07;184.23;;;75.43;;
9186;SDS011;7273;48.902;9.410;2024-01-30T08:59:33;189.50;;;78.32;;
9186;SDS011;7273;48.902;9.410;2024-01-30T09:01:58;195.88;;;78.78;;
9186;SDS011;7273;48.902;9.410;2024-01-30T09:04:24;220.27;;;86.82;;
9186;SDS011;7273;48.902;9.410;2024-01-30T09:06:50;226.80;;;87.90;;
9186;SDS011;7273;48.902;9.410;2024-01-30T09:09:15;220.85;;;87.00;;
9186;SDS011;7273;48.902;9.410;2024-01-30T09:11:41;3.67;;;1.25;;
9186;SDS011;7273;48.902;9.410;2024-01-30T09:14:06;2.40;;;0.93;;
9186;SDS011;7273;48.902;9.410;2024-01-30T09:16:32;12.75;;;7.47;;
9186;SDS011;7273;48.902;9.410;2024-01-30T09:18:57;23.77;;;10.57;;
9186;SDS011;7273;48.902;9.410;2024-01-30T09:21:23;3.80;;;1.38;;
9186;SDS011;7273;48.902;9.410;2024-01-30T09:23:48;2.45;;;0.80;;
9186;SDS011;7273;48.902;9.410;2024-01-30T09:26:14;5.32;;;2.35;;
9186;SDS011;7273;48.902;9.410;2024-01-30T09:28:39;24.83;;;10.07;;
9186;SDS011;7273;48.902;9.410;2024-01-30T09:31:09;18.75;;;1.92;;
9186;SDS011;7273;48.902;9.410;2024-01-30T09:33:34;15.55;;;8.13;;
9186;SDS011;7273;48.902;9.410;2024-01-30T09:36:01;31.20;;;15.15;;
9186;SDS011;7273;48.902;9.410;2024-01-30T09:38:26;5.93;;;2.38;;
9186;SDS011;7273;48.902;9.410;2024-01-30T09:40:53;4.05;;;2.42;;
9186;SDS011;7273;48.902;9.410;2024-01-30T09:43:23;1.25;;;0.82;;
9186;SDS011;7273;48.902;9.410;2024-01-30T09:45:52;0.77;;;0.77;;
9186;SDS011;7273;48.902;9.410;2024-01-30T09:48:19;1.75;;;1.40;;
9186;SDS011;7273;48.902;9.410;2024-01-30T09:50:44;1.67;;;1.33;;
9186;SDS011;7273;48.902;9.410;2024-01-30T09:53:11;3.08;;;1.70;;
9186;SDS011;7273;48.902;9.410;2024-01-30T09:55:38;1.75;;;1.27;;
9186;SDS011;7273;48.902;9.410;2024-01-30T09:58:07;1.85;;;1.27;;
9186;SDS011;7273;48.902;9.410;2024-01-30T10:00:33;22.00;;;11.20;;
9186;SDS011;7273;48.902;9.410;2024-01-30T10:02:58;60.45;;;32.15;;
9186;SDS011;7273;48.902;9.410;2024-01-30T10:05:26;45.03;;;25.92;;
9186;SDS011;7273;48.902;9.410;2024-01-30T10:07:53;8.07;;;2.83;;
9186;SDS011;7273;48.902;9.410;2024-01-30T10:10:21;3.30;;;2.05;;
9186;SDS011;7273;48.902;9.410;2024-01-30T10:12:50;2.53;;;1.23;;
9186;SDS011;7273;48.902;9.410;2024-01-30T10:15:15;1.33;;;1.15;;
9186;SDS011;7273;48.902;9.410;2024-01-30T10:17:43;5.13;;;1.33;;
9186;SDS011;7273;48.902;9.410;2024-01-30T10:20:12;1.63;;;1.52;;
9186;SDS011;7273;48.902;9.410;2024-01-30T10:22:39;4.03;;;1.10;;
9186;SDS011;7273;48.902;9.410;2024-01-30T10:25:05;0.98;;;0.82;;
9186;SDS011;7273;48.902;9.410;2024-01-30T10:27:32;1.50;;;1.02;;
9186;SDS011;7273;48.902;9.410;2024-01-30T10:29:58;2.80;;;1.42;;
9186;SDS011;7273;48.902;9.410;2024-01-30T10:32:23;2.70;;;1.50;;
9186;SDS011;7273;48.902;9.410;2024-01-30T10:34:50;2.90;;;1.33;;
9186;SDS011;7273;48.902;9.410;2024-01-30T10:37:16;9.02;;;2.17;;
9186;SDS011;7273;48.902;9.410;2024-01-30T10:39:44;2.10;;;1.77;;
9186;SDS011;7273;48.902;9.410;2024-01-30T10:42:14;1.27;;;1.10;;
9186;SDS011;7273;48.902;9.410;2024-01-30T10:45:02;0.68;;;0.65;;
9186;SDS011;7273;48.902;9.410;2024-01-30T10:47:35;1.70;;;1.20;;
9186;SDS011;7273;48.902;9.410;2024-01-30T10:50:02;2.83;;;1.45;;
9186;SDS011;7273;48.902;9.410;2024-01-30T10:52:31;1.60;;;0.98;;
9186;SDS011;7273;48.902;9.410;2024-01-30T10:54:57;1.33;;;1.05;;
9186;SDS011;7273;48.902;9.410;2024-01-30T10:57:23;9.18;;;1.50;;
9186;SDS011;7273;48.902;9.410;2024-01-30T10:59:50;3.72;;;1.35;;
9186;SDS011;7273;48.902;9.410;2024-01-30T11:02:18;5.88;;;1.27;;
9186;SDS011;7273;48.902;9.410;2024-01-30T11:04:45;1.95;;;1.35;;
9186;SDS011;7273;48.902;9.410;2024-01-30T11:07:13;8.98;;;3.10;;
9186;SDS011;7273;48.902;9.410;2024-01-30T11:12:26;1.60;;;0.98;;
9186;SDS011;7273;48.902;9.410;2024-01-30T11:15:09;0.75;;;0.73;;
9186;SDS011;7273;48.902;9.410;2024-01-30T11:22:46;0.93;;;0.80;;
9186;SDS011;7273;48.902;9.410;2024-01-30T11:25:16;1.52;;;1.05;;
9186;SDS011;7273;48.902;9.410;2024-01-30T11:27:43;5.40;;;2.40;;
9186;SDS011;7273;48.902;9.410;2024-01-30T11:30:09;2.40;;;1.48;;
9186;SDS011;7273;48.902;9.410;2024-01-30T11:32:35;2.17;;;1.90;;
9186;SDS011;7273;48.902;9.410;2024-01-30T11:35:04;3.35;;;1.42;;
9186;SDS011;7273;48.902;9.410;2024-01-30T11:37:36;1.27;;;1.17;;
9186;SDS011;7273;48.902;9.410;2024-01-30T11:40:04;3.03;;;2.03;;
9186;SDS011;7273;48.902;9.410;2024-01-30T11:42:30;4.50;;;2.08;;
9186;SDS011;7273;48.902;9.410;2024-01-30T11:44:55;1.20;;;1.10;;
9186;SDS011;7273;48.902;9.410;2024-01-30T11:47:22;3.35;;;1.95;;
9186;SDS011;7273;48.902;9.410;2024-01-30T11:49:47;3.70;;;1.25;;
9186;SDS011;7273;48.902;9.410;2024-01-30T11:52:13;1.95;;;1.73;;
9186;SDS011;7273;48.902;9.410;2024-01-30T11:54:39;1.92;;;1.10;;
9186;SDS011;7273;48.902;9.410;2024-01-30T11:57:05;1.20;;;0.93;;
9186;SDS011;7273;48.902;9.410;2024-01-30T11:59:30;2.47;;;1.55;;
9186;SDS011;7273;48.902;9.410;2024-01-30T12:01:56;15.03;;;1.73;;
9186;SDS011;7273;48.902;9.410;2024-01-30T12:04:21;1.98;;;1.30;;
9186;SDS011;7273;48.902;9.410;2024-01-30T12:06:50;1.50;;;1.17;;
9186;SDS011;7273;48.902;9.410;2024-01-30T12:09:16;2.25;;;1.00;;
9186;SDS011;7273;48.902;9.410;2024-01-30T12:14:11;3.53;;;1.52;;
9186;SDS011;7273;48.902;9.410;2024-01-30T12:16:37;1.92;;;1.15;;
9186;SDS011;7273;48.902;9.410;2024-01-30T12:19:02;1.38;;;1.10;;
9186;SDS011;7273;48.902;9.410;2024-01-30T12:21:28;7.65;;;2.13;;
9186;SDS011;7273;48.902;9.410;2024-01-30T12:23:54;2.78;;;1.35;;
9186;SDS011;7273;48.902;9.410;2024-01-30T12:26:19;2.33;;;1.55;;
9186;SDS011;7273;48.902;9.410;2024-01-30T12:28:48;7.88;;;1.63;;
9186;SDS011;7273;48.902;9.410;2024-01-30T12:31:17;2.80;;;1.65;;
9186;SDS011;7273;48.902;9.410;2024-01-30T12:33:42;1.95;;;1.13;;
9186;SDS011;7273;48.902;9.410;2024-01-30T12:36:08;1.23;;;1.05;;
9186;SDS011;7273;48.902;9.410;2024-01-30T12:38:33;5.10;;;2.03;;
9186;SDS011;7273;48.902;9.410;2024-01-30T12:40:59;5.20;;;1.23;;
9186;SDS011;7273;48.902;9.410;2024-01-30T12:43:24;4.70;;;1.65;;
9186;SDS011;7273;48.902;9.410;2024-01-30T12:45:50;1.50;;;1.08;;
9186;SDS011;7273;48.902;9.410;2024-01-30T12:48:17;1.70;;;1.08;;
9186;SDS011;7273;48.902;9.410;2024-01-30T12:50:43;4.80;;;1.27;;
9186;SDS011;7273;48.902;9.410;2024-01-30T12:53:09;1.30;;;1.20;;
9186;SDS011;7273;48.902;9.410;2024-01-30T12:55:34;4.72;;;2.22;;
9186;SDS011;7273;48.902;9.410;2024-01-30T12:58:00;2.78;;;1.15;;
9186;SDS011;7273;48.902;9.410;2024-01-30T13:00:25;3.70;;;1.55;;
9186;SDS011;7273;48.902;9.410;2024-01-30T13:02:51;2.40;;;0.98;;
9186;SDS011;7273;48.902;9.410;2024-01-30T13:05:16;3.17;;;2.17;;
9186;SDS011;7273;48.902;9.410;2024-01-30T13:07:42;1.48;;;0.90;;
9186;SDS011;7273;48.902;9.410;2024-01-30T13:10:08;2.33;;;1.42;;
9186;SDS011;7273;48.902;9.410;2024-01-30T13:12:33;2.75;;;1.50;;
9186;SDS011;7273;48.902;9.410;2024-01-30T13:14:59;8.38;;;1.27;;
9186;SDS011;7273;48.902;9.410;2024-01-30T13:17:29;13.20;;;2.35;;
9186;SDS011;7273;48.902;9.410;2024-01-30T13:19:55;3.88;;;1.83;;
9186;SDS011;7273;48.902;9.410;2024-01-30T13:22:21;3.40;;;1.75;;
9186;SDS011;7273;48.902;9.410;2024-01-30T13:24:49;1.00;;;0.77;;
9186;SDS011;7273;48.902;9.410;2024-01-30T13:27:15;6.75;;;1.10;;
9186;SDS011;7273;48.902;9.410;2024-01-30T13:29:41;2.17;;;1.17;;
9186;SDS011;7273;48.902;9.410;2024-01-30T13:32:06;8.50;;;2.15;;
9186;SDS011;7273;48.902;9.410;2024-01-30T13:34:31;6.60;;;1.45;;
9186;SDS011;7273;48.902;9.410;2024-01-30T13:36:57;1.92;;;1.38;;
9186;SDS011;7273;48.902;9.410;2024-01-30T13:39:22;2.22;;;1.55;;
9186;SDS011;7273;48.902;9.410;2024-01-30T13:41:48;2.70;;;1.58;;
9186;SDS011;7273;48.902;9.410;2024-01-30T13:44:13;2.83;;;1.77;;
9186;SDS011;7273;48.902;9.410;2024-01-30T13:46:41;3.33;;;1.75;;
9186;SDS011;7273;48.902;9.410;2024-01-30T13:49:06;24.27;;;2.40;;
9186;SDS011;7273;48.902;9.410;2024-01-30T13:51:32;3.45;;;1.50;;
9186;SDS011;7273;48.902;9.410;2024-01-30T13:53:57;1.73;;;1.33;;
9186;SDS011;7273;48.902;9.410;2024-01-30T13:56:23;1.85;;;1.30;;
9186;SDS011;7273;48.902;9.410;2024-01-30T13:58:48;7.47;;;1.85;;
9186;SDS011;7273;48.902;9.410;2024-01-30T14:01:15;3.35;;;2.33;;
9186;SDS011;7273;48.902;9.410;2024-01-30T14:03:41;1.80;;;1.05;;
9186;SDS011;7273;48.902;9.410;2024-01-30T14:06:06;1.17;;;0.98;;
9186;SDS011;7273;48.902;9.410;2024-01-30T14:08:31;1.65;;;1.55;;
9186;SDS011;7273;48.902;9.410;2024-01-30T14:10:57;2.70;;;1.58;;
9186;SDS011;7273;48.902;9.410;2024-01-30T14:13:23;1.58;;;1.45;;
9186;SDS011;7273;48.902;9.410;2024-01-30T14:15:50;4.65;;;1.90;;
9186;SDS011;7273;48.902;9.410;2024-01-30T14:18:16;2.33;;;0.98;;
9186;SDS011;7273;48.902;9.410;2024-01-30T14:20:41;1.88;;;1.33;;
9186;SDS011;7273;48.902;9.410;2024-01-30T14:23:07;5.03;;;1.58;;
9186;SDS011;7273;48.902;9.410;2024-01-30T14:25:33;3.92;;;1.42;;
9186;SDS011;7273;48.902;9.410;2024-01-30T14:27:58;3.95;;;2.40;;
9186;SDS011;7273;48.902;9.410;2024-01-30T14:30:23;2.90;;;1.70;;
9186;SDS011;7273;48.902;9.410;2024-01-30T14:32:49;1.58;;;1.15;;
9186;SDS011;7273;48.902;9.410;2024-01-30T14:35:15;1.65;;;1.00;;
9186;SDS011;7273;48.902;9.410;2024-01-30T14:37:40;2.47;;;1.38;;
9186;SDS011;7273;48.902;9.410;2024-01-30T14:40:07;0.50;;;0.50;;
9186;SDS011;7273;48.902;9.410;2024-01-30T14:42:32;1.85;;;1.23;;
9186;SDS011;7273;48.902;9.410;2024-01-30T14:44:58;3.35;;;1.80;;
9186;SDS011;7273;48.902;9.410;2024-01-30T14:47:24;1.33;;;1.05;;
9186;SDS011;7273;48.902;9.410;2024-01-30T14:49:49;3.00;;;1.55;;
9186;SDS011;7273;48.902;9.410;2024-01-30T14:52:15;2.70;;;1.30;;
9186;SDS011;7273;48.902;9.410;2024-01-30T14:54:41;2.08;;;1.10;;
9186;SDS011;7273;48.902;9.410;2024-01-30T14:57:06;2.97;;;1.95;;
9186;SDS011;7273;48.902;9.410;2024-01-30T14:59:33;7.93;;;1.55;;
9186;SDS011;7273;48.902;9.410;2024-01-30T15:01:59;2.53;;;1.63;;
9186;SDS011;7273;48.902;9.410;2024-01-30T15:04:24;1.60;;;1.45;;
9186;SDS011;7273;48.902;9.410;2024-01-30T15:06:50;1.60;;;1.33;;
9186;SDS011;7273;48.902;9.410;2024-01-30T15:09:15;0.85;;;0.82;;
9186;SDS011;7273;48.902;9.410;2024-01-30T15:11:41;3.33;;;1.70;;
9186;SDS011;7273;48.902;9.410;2024-01-30T15:14:08;1.92;;;1.05;;